Hovedside
METAR-TAF:

METAR-TAF

Lufthavner :

Florø lufthavn

Florø, Norge

breddegrad: 61-35N, lengdegrad: 005-02E, høyde over havet: 0 m

Gjeldene værobservasjon

Denne rapporten ble laget for 29 minutter siden, klokken 06:50 UTC
Vind 5 kt fra Øst, skiftende mellom Øst-nordøst og Sørøst
Temperatur 14°C
Luftfuktighet 44%
Trykk 1016 hPa
Sikt 10 km eller mer
ingen skyer under 1500 m og ingen bygeskyer

METAR: ENFL 230650Z 09005KT 060V130 CAVOK 14/02 Q1016

Tid: 09:19 (07:19 UTC)

Varsel

Denne rapporten ble laget for 2 timer og 19 minutter siden, klokken 05:00 UTC
Varsel gyldig fra 23. klokken 06 UTC til 23. klokken 15 UTC
Vind 8 kt fra Øst
Sikt 10 km eller mer
ingen skyer under 1500 m og ingen bygeskyer

TAF: ENFL 230500Z 2306/2315 08008KT CAVOK

Værobservasjoner og værvarsel for over 4000 flyplasser (METAR- og TAF-rapporter).

Tilgjengelige stasjoner er representert av de røde og gule prikkene på kartet.

Hold musepekeren over prikken for å se navnet på stasjonen.

Klikk så for å se værobservasjoner og -varsler.

For å forandre kartet kan du klikke på den grønne knappen med svart kryss for å zoome inn, på den grønne knappen med strek for å zoome ut, eller på de grønne pilene for å se tilstøtende kart.


METAR-TAF: